Time;durP1;ratioP1;P1;durP2;ratioP2;P2;SDS_P1;SDS_P2;PMS_P1;PMS_P2;Temp;Humidity;BMP_temperature;BMP_pressure;BME280_temperature;BME280_humidity;BME280_pressure;Samples;Min_cycle;Max_cycle;Signal;HPM_P1;HPM_P2
2023/05/15 00:01:47;;;;;;;;;;;10.00;99.90;;;;;;6155351;23;19966;-76
2023/05/15 00:04:16;;;;;;;;;;;9.90;99.90;;;;;;6137892;23;19924;-76
2023/05/15 00:06:42;;;;;;;;;;;9.90;99.90;;;;;;6153531;23;19928;-76
2023/05/15 00:09:07;;;;;;;;;;;9.80;99.90;;;;;;6153788;23;19928;-76
2023/05/15 00:11:33;;;;;;;;;;;9.80;99.90;;;;;;6155359;23;20249;-76
2023/05/15 00:13:58;;;;;;;;;;;9.80;99.90;;;;;;6154066;23;20301;-75
2023/05/15 00:16:33;;;;;;;;;;;9.80;99.90;;;;;;6153713;23;20230;-76
2023/05/15 00:18:58;;;;;;;;;;;9.80;99.90;;;;;;6155121;23;19954;-76
2023/05/15 00:21:24;;;;;;;;;;;9.70;99.90;;;;;;6156053;23;19920;-76
2023/05/15 00:23:52;;;;;;;;;;;9.70;99.90;;;;;;6155240;23;19995;-76
2023/05/15 00:26:18;;;;;;;;;;;9.60;99.90;;;;;;6153369;23;19921;-76
2023/05/15 00:28:46;;;;;;;;;;;9.60;99.90;;;;;;6156120;23;20237;-75
2023/05/15 00:31:13;;;;;;;;;;;9.70;99.90;;;;;;6155222;23;19920;-76
2023/05/15 00:33:39;;;;;;;;;;;9.50;99.90;;;;;;6154110;23;20301;-76
2023/05/15 00:36:07;;;;;;;;;;;9.60;99.90;;;;;;6153295;23;19925;-75
2023/05/15 00:38:33;;;;;;;;;;;9.40;99.90;;;;;;6154970;23;20560;-76
2023/05/15 00:40:59;;;;;;;;;;;9.30;99.90;;;;;;6155157;23;19920;-76
2023/05/15 00:43:25;;;;;;;;;;;9.30;99.90;;;;;;6157630;23;19924;-76
2023/05/15 00:45:52;;;;;;;;;;;9.30;99.90;;;;;;6154931;23;20392;-75
2023/05/15 00:48:18;;;;;;;;;;;9.60;99.90;;;;;;6155696;23;19959;-76
2023/05/15 00:50:44;;;;;;;;;;;9.20;99.90;;;;;;6155638;23;19931;-75
2023/05/15 00:53:09;;;;;;;;;;;9.30;99.90;;;;;;6155061;23;19952;-75
2023/05/15 00:55:35;;;;;;;;;;;9.20;99.90;;;;;;6156792;23;19928;-76
2023/05/15 00:58:02;;;;;;;;;;;9.20;99.90;;;;;;6155587;23;19927;-77
2023/05/15 01:00:30;;;;;;;;;;;9.20;99.90;;;;;;6157003;23;19924;-75
2023/05/15 01:02:55;;;;;;;;;;;9.20;99.90;;;;;;6155566;23;20400;-75
2023/05/15 01:05:21;;;;;;;;;;;9.20;99.90;;;;;;6155213;23;19921;-75
2023/05/15 01:08:01;;;;;;;;;;;9.00;99.90;;;;;;6154820;23;19968;-75
2023/05/15 01:10:26;;;;;;;;;;;9.30;99.90;;;;;;6155746;23;19924;-76
2023/05/15 01:12:54;;;;;;;;;;;9.30;99.90;;;;;;6155794;23;19921;-75
2023/05/15 01:15:19;;;;;;;;;;;9.30;99.90;;;;;;6157938;23;19916;-75
2023/05/15 01:17:45;;;;;;;;;;;9.30;99.90;;;;;;6158828;23;20015;-74
2023/05/15 01:20:14;;;;;;;;;;;9.40;99.90;;;;;;6162249;23;19927;-75
2023/05/15 01:22:43;;;;;;;;;;;9.50;99.90;;;;;;6165398;23;19968;-74
2023/05/15 01:25:24;;;;;;;;;;;9.50;99.90;;;;;;6164277;23;19944;-74
2023/05/15 01:27:54;;;;;;;;;;;9.60;99.90;;;;;;6169455;23;19921;-75
2023/05/15 01:30:19;;;;;;;;;;;9.60;99.90;;;;;;6161584;23;19920;-75
2023/05/15 01:33:05;;;;;;;;;;;10.00;99.90;;;;;;6155466;23;19931;-75
2023/05/15 01:35:42;;;;;;;;;;;9.70;99.90;;;;;;6154935;23;19924;-75
2023/05/15 01:38:20;;;;;;;;;;;9.70;99.90;;;;;;6154639;23;20001;-75
2023/05/15 01:40:47;;;;;;;;;;;9.70;99.90;;;;;;6157199;23;19924;-75
2023/05/15 01:43:15;;;;;;;;;;;9.80;99.90;;;;;;6154497;23;19916;-74
2023/05/15 01:45:41;;;;;;;;;;;9.80;99.90;;;;;;6155261;23;19921;-76
2023/05/15 01:48:07;;;;;;;;;;;9.90;99.90;;;;;;6154393;23;20011;-75
2023/05/15 01:50:34;;;;;;;;;;;9.90;99.90;;;;;;6154442;23;19967;-75
2023/05/15 01:52:59;;;;;;;;;;;10.00;99.90;;;;;;6154909;23;19995;-75
2023/05/15 01:55:26;;;;;;;;;;;10.00;99.90;;;;;;6155219;23;20416;-75
2023/05/15 01:57:52;;;;;;;;;;;10.10;99.90;;;;;;6156253;23;19921;-75
2023/05/15 02:00:18;;;;;;;;;;;10.60;99.90;;;;;;6154720;23;19928;-75
2023/05/15 02:02:45;;;;;;;;;;;10.10;99.90;;;;;;6156224;23;19920;-75
2023/05/15 02:05:11;;;;;;;;;;;10.10;99.90;;;;;;6156115;23;19948;-75
2023/05/15 02:07:37;;;;;;;;;;;10.00;99.90;;;;;;6156683;23;19975;-74
2023/05/15 02:10:03;;;;;;;;;;;10.00;99.90;;;;;;6129544;23;20392;-75
2023/05/15 02:12:35;;;;;;;;;;;9.90;99.90;;;;;;6156678;23;20333;-75
2023/05/15 02:15:01;;;;;;;;;;;9.80;99.90;;;;;;6130120;23;19927;-75
2023/05/15 02:17:28;;;;;;;;;;;9.70;99.90;;;;;;6156109;23;20027;-75
2023/05/15 02:19:56;;;;;;;;;;;9.70;99.90;;;;;;6156412;23;19991;-75
2023/05/15 02:22:22;;;;;;;;;;;9.60;99.90;;;;;;6130291;23;19920;-74
2023/05/15 02:24:47;;;;;;;;;;;10.40;99.90;;;;;;6155449;23;20244;-75
2023/05/15 02:27:19;;;;;;;;;;;10.20;99.90;;;;;;6130217;23;19975;-75
2023/05/15 02:29:48;;;;;;;;;;;9.60;99.90;;;;;;6130253;23;20002;-75
2023/05/15 02:32:24;;;;;;;;;;;9.50;99.90;;;;;;6155927;23;20260;-74
2023/05/15 02:35:08;;;;;;;;;;;9.50;99.90;;;;;;6156696;23;19922;-75
2023/05/15 02:37:37;;;;;;;;;;;9.50;99.90;;;;;;6130148;23;19927;-75
2023/05/15 02:40:09;;;;;;;;;;;9.40;99.90;;;;;;6156036;23;19925;-75
2023/05/15 02:42:36;;;;;;;;;;;9.40;99.90;;;;;;6129919;23;19995;-75
2023/05/15 02:45:02;;;;;;;;;;;9.40;99.90;;;;;;6155793;23;19920;-75
2023/05/15 02:47:31;;;;;;;;;;;9.40;99.90;;;;;;6156491;23;19943;-75
2023/05/15 02:50:01;;;;;;;;;;;9.30;99.90;;;;;;6129756;23;19920;-74
2023/05/15 02:52:26;;;;;;;;;;;9.30;99.90;;;;;;6129679;23;19944;-75
2023/05/15 02:54:52;;;;;;;;;;;9.30;99.90;;;;;;6129777;23;19928;-75
2023/05/15 02:57:17;;;;;;;;;;;9.40;99.90;;;;;;6129969;23;19921;-75
2023/05/15 02:59:43;;;;;;;;;;;9.80;99.90;;;;;;6129679;23;20005;-75
2023/05/15 03:02:09;;;;;;;;;;;9.20;99.90;;;;;;6129436;23;19920;-75
2023/05/15 03:04:35;;;;;;;;;;;9.20;99.90;;;;;;6155562;23;19928;-75
2023/05/15 03:07:00;;;;;;;;;;;9.10;99.90;;;;;;6128767;23;19921;-76
2023/05/15 03:09:26;;;;;;;;;;;9.10;99.90;;;;;;6156285;23;20004;-74
2023/05/15 03:14:38;;;;;;;;;;;9.10;99.90;;;;;;6182994;23;19929;-76
2023/05/15 03:17:38;;;;;;;;;;;9.90;99.90;;;;;;6158744;23;19920;-76
2023/05/15 03:20:07;;;;;;;;;;;9.00;99.90;;;;;;6158107;23;19927;-73
2023/05/15 03:22:33;;;;;;;;;;;8.40;99.90;;;;;;6159601;23;19921;-72
2023/05/15 03:25:00;;;;;;;;;;;9.20;99.90;;;;;;6185410;23;20241;-72
2023/05/15 03:27:26;;;;;;;;;;;9.10;99.90;;;;;;6158622;23;19921;-75
2023/05/15 03:29:52;;;;;;;;;;;9.10;99.90;;;;;;6185439;23;19920;-74
2023/05/15 03:32:17;;;;;;;;;;;9.00;99.90;;;;;;6158790;23;20019;-75
2023/05/15 03:34:43;;;;;;;;;;;9.00;99.90;;;;;;6158421;23;19920;-73
2023/05/15 03:43:47;;;;;;;;;;;7.40;99.90;;;;;;6173124;23;19955;-74
2023/05/15 03:46:37;;;;;;;;;;;8.40;99.90;;;;;;6158750;23;19924;-74
2023/05/15 03:49:02;;;;;;;;;;;7.30;99.90;;;;;;6157247;23;19928;-73
2023/05/15 03:54:04;;;;;;;;;;;8.80;99.90;;;;;;6214569;23;20279;-73
2023/05/15 03:57:10;;;;;;;;;;;9.80;99.90;;;;;;6153404;23;19927;-72
2023/05/15 04:20:10;;;;;;;;;;;8.80;99.90;;;;;;6177032;23;19927;-75
2023/05/15 04:22:35;;;;;;;;;;;8.70;99.90;;;;;;6102258;23;19921;-73
2023/05/15 04:25:01;;;;;;;;;;;9.00;99.90;;;;;;6101040;23;19921;-78
2023/05/15 04:27:27;;;;;;;;;;;8.90;99.90;;;;;;6102072;23;19972;-76
2023/05/15 04:29:52;;;;;;;;;;;8.90;99.90;;;;;;6101306;23;19946;-74
2023/05/15 04:32:18;;;;;;;;;;;8.90;99.90;;;;;;6127787;23;20230;-77
2023/05/15 04:34:43;;;;;;;;;;;9.00;99.90;;;;;;6101517;23;20291;-73
2023/05/15 04:37:09;;;;;;;;;;;9.00;99.90;;;;;;6101529;23;19987;-74
2023/05/15 04:39:35;;;;;;;;;;;9.10;99.90;;;;;;6101288;23;20326;-75
2023/05/15 04:42:01;;;;;;;;;;;9.40;99.90;;;;;;6126660;23;19975;-73
2023/05/15 04:44:29;;;;;;;;;;;9.30;99.90;;;;;;6097493;23;19925;-74
2023/05/15 04:46:54;;;;;;;;;;;9.40;99.90;;;;;;6100691;23;20657;-74
2023/05/15 04:49:20;;;;;;;;;;;9.50;99.90;;;;;;6100657;23;19921;-73
2023/05/15 04:51:45;;;;;;;;;;;10.00;99.90;;;;;;6100556;23;19921;-73
2023/05/15 04:54:14;;;;;;;;;;;9.60;99.90;;;;;;6102192;23;19928;-75
2023/05/15 04:56:40;;;;;;;;;;;9.70;99.90;;;;;;6100946;23;20249;-74
2023/05/15 04:59:05;;;;;;;;;;;10.40;99.90;;;;;;6127126;23;19921;-77
2023/05/15 05:01:31;;;;;;;;;;;9.80;99.90;;;;;;6128255;23;20337;-75
2023/05/15 05:03:56;;;;;;;;;;;9.90;99.90;;;;;;6128811;23;19921;-75
2023/05/15 05:06:22;;;;;;;;;;;9.90;99.90;;;;;;6100041;23;19931;-77
2023/05/15 05:08:48;;;;;;;;;;;10.00;99.90;;;;;;6109818;23;19920;-76
2023/05/15 05:11:13;;;;;;;;;;;10.10;99.90;;;;;;6111650;23;19925;-81
2023/05/15 05:13:39;;;;;;;;;;;10.20;99.90;;;;;;6113113;23;19956;-83
2023/05/15 05:16:04;;;;;;;;;;;10.20;99.90;;;;;;6114324;23;19920;-78
2023/05/15 05:18:30;;;;;;;;;;;10.30;99.90;;;;;;6131387;23;19980;-79
2023/05/15 05:20:59;;;;;;;;;;;10.40;99.90;;;;;;6126148;23;19925;-86
2023/05/15 05:23:25;;;;;;;;;;;10.60;99.90;;;;;;6101715;23;19956;-81
2023/05/15 05:25:50;;;;;;;;;;;10.70;99.90;;;;;;6100188;23;19940;-80
2023/05/15 05:28:19;;;;;;;;;;;11.90;99.90;;;;;;6127519;23;19956;-78
2023/05/15 05:30:45;;;;;;;;;;;10.90;99.90;;;;;;6126972;23;19917;-80
2023/05/15 05:33:11;;;;;;;;;;;11.20;99.90;;;;;;6126736;23;19925;-81
2023/05/15 05:35:36;;;;;;;;;;;11.20;99.90;;;;;;6125541;23;20326;-80
2023/05/15 05:38:02;;;;;;;;;;;11.20;99.90;;;;;;6126090;23;19921;-80
2023/05/15 05:40:27;;;;;;;;;;;11.40;99.90;;;;;;6101317;23;19936;-79
2023/05/15 05:42:53;;;;;;;;;;;11.40;99.90;;;;;;6102445;23;19975;-85
2023/05/15 05:54:45;;;;;;;;;;;10.90;99.90;;;;;;6187878;23;19919;-78
2023/05/15 06:01:35;;;;;;;;;;;12.10;99.90;;;;;;6067783;23;19966;-78
2023/05/15 06:18:50;;;;;;;;;;;11.80;99.90;;;;;;6006339;23;19923;-78
2023/05/15 06:28:06;;;;;;;;;;;12.50;99.90;;;;;;5985324;23;20034;-78
2023/05/15 06:31:17;;;;;;;;;;;;;;;;;;;;;
2023/05/15 06:34:10;;;;;;;;;;;12.50;99.90;;;;;;5949126;23;20004;-78
2023/05/15 06:40:09;;;;;;;;;;;12.50;99.90;;;;;;6066108;23;19932;-78
2023/05/15 06:43:05;;;;;;;;;;;12.60;99.90;;;;;;6042036;23;20286;-79
2023/05/15 06:45:31;;;;;;;;;;;12.70;99.90;;;;;;6042147;23;19921;-78
2023/05/15 06:47:56;;;;;;;;;;;12.40;99.90;;;;;;6077761;23;19943;-78
2023/05/15 06:50:22;;;;;;;;;;;12.70;99.90;;;;;;6159686;23;20250;-78
2023/05/15 06:52:51;;;;;;;;;;;12.70;99.90;;;;;;6158932;23;20253;-79
2023/05/15 06:55:28;;;;;;;;;;;12.70;99.90;;;;;;6159715;23;19924;-79
2023/05/15 06:58:12;;;;;;;;;;;12.80;99.90;;;;;;6188400;23;19927;-78
2023/05/15 07:04:15;;;;;;;;;;;13.10;99.90;;;;;;6186145;23;19920;-79
2023/05/15 07:07:14;;;;;;;;;;;14.50;99.90;;;;;;6159177;23;19920;-79
2023/05/15 07:09:40;;;;;;;;;;;13.20;99.90;;;;;;6185876;23;20261;-79
2023/05/15 07:12:06;;;;;;;;;;;13.90;99.90;;;;;;6159061;23;19920;-79
2023/05/15 07:15:08;;;;;;;;;;;14.10;99.90;;;;;;6159114;23;19921;-79
2023/05/15 07:21:02;;;;;;;;;;;14.60;99.90;;;;;;6184559;23;19962;-79
2023/05/15 07:23:28;;;;;;;;;;;15.20;99.90;;;;;;6158955;23;19927;-79
2023/05/15 07:25:54;;;;;;;;;;;16.40;99.90;;;;;;6185493;23;19916;-79
2023/05/15 07:28:19;;;;;;;;;;;16.00;99.90;;;;;;6185134;23;19995;-79
2023/05/15 07:30:45;;;;;;;;;;;16.10;99.90;;;;;;6159129;23;19931;-78
2023/05/15 07:33:11;;;;;;;;;;;16.40;99.90;;;;;;6185550;23;19916;-79
2023/05/15 07:35:36;;;;;;;;;;;16.90;99.90;;;;;;6185256;23;19920;-78
2023/05/15 07:38:02;;;;;;;;;;;17.20;99.90;;;;;;6158156;23;20003;-78
2023/05/15 07:40:28;;;;;;;;;;;17.80;99.90;;;;;;6185157;23;19949;-79
2023/05/15 08:15:07;;;;;;;;;;;15.80;99.90;;;;;;6196832;23;19999;-78
2023/05/15 08:18:04;;;;;;;;;;;15.70;99.90;;;;;;6158316;23;19959;-78
2023/05/15 08:24:09;;;;;;;;;;;16.00;99.90;;;;;;6064285;23;19981;-78
2023/05/15 09:12:20;;;;;;;;;;;16.30;99.90;;;;;;6186716;23;19916;-78
2023/05/15 09:35:02;;;;;;;;;;;15.50;99.90;;;;;;6198669;23;19921;-79
2023/05/15 09:37:29;;;;;;;;;;;15.60;99.90;;;;;;6157298;23;19924;-79
2023/05/15 09:40:05;;;;;;;;;;;15.40;99.90;;;;;;6154561;23;19987;-78
2023/05/15 09:42:33;;;;;;;;;;;15.40;99.90;;;;;;6157660;23;19920;-79
2023/05/15 09:44:58;;;;;;;;;;;15.60;99.90;;;;;;6154837;23;20371;-78
2023/05/15 09:47:26;;;;;;;;;;;15.60;99.90;;;;;;6155987;23;19988;-79
2023/05/15 09:49:51;;;;;;;;;;;15.70;99.90;;;;;;6154958;23;19932;-78
2023/05/15 09:52:17;;;;;;;;;;;15.70;99.90;;;;;;6155258;23;20024;-78
2023/05/15 09:54:46;;;;;;;;;;;15.80;99.90;;;;;;6156810;23;19975;-78
2023/05/15 09:57:12;;;;;;;;;;;15.80;99.90;;;;;;6156563;23;19943;-78
2023/05/15 09:59:47;;;;;;;;;;;15.80;99.90;;;;;;6156678;23;19925;-79
2023/05/15 10:02:21;;;;;;;;;;;15.80;99.90;;;;;;6154565;23;19968;-78
2023/05/15 10:04:52;;;;;;;;;;;15.70;99.90;;;;;;6157022;23;19921;-79
2023/05/15 10:07:25;;;;;;;;;;;15.60;99.90;;;;;;6155291;23;19925;-79
2023/05/15 10:09:51;;;;;;;;;;;15.80;99.90;;;;;;6155996;23;19921;-79
2023/05/15 10:12:16;;;;;;;;;;;15.50;99.90;;;;;;6154921;23;19921;-78
2023/05/15 10:14:42;;;;;;;;;;;15.60;99.90;;;;;;6156925;23;19920;-78
2023/05/15 10:17:11;;;;;;;;;;;15.70;99.90;;;;;;6153990;23;19921;-78
2023/05/15 10:19:37;;;;;;;;;;;15.70;99.90;;;;;;6154992;23;20330;-78
2023/05/15 10:22:06;;;;;;;;;;;15.70;99.90;;;;;;6154109;23;20345;-79
2023/05/15 10:24:32;;;;;;;;;;;15.90;99.90;;;;;;6156907;23;19927;-79
2023/05/15 10:27:01;;;;;;;;;;;16.10;99.90;;;;;;6156303;23;19921;-79
2023/05/15 10:29:27;;;;;;;;;;;16.00;99.90;;;;;;6154698;23;19948;-79
2023/05/15 10:31:53;;;;;;;;;;;16.00;99.90;;;;;;6156533;23;19968;-78
2023/05/15 10:34:19;;;;;;;;;;;16.00;99.90;;;;;;6156816;23;19943;-78
2023/05/15 10:36:48;;;;;;;;;;;15.80;99.90;;;;;;6158250;23;19921;-79
2023/05/15 10:39:17;;;;;;;;;;;15.90;99.90;;;;;;6159938;23;19966;-79
2023/05/15 10:41:43;;;;;;;;;;;16.00;99.90;;;;;;6159694;23;19920;-78
2023/05/15 10:44:09;;;;;;;;;;;16.00;99.90;;;;;;6185364;23;19920;-79
2023/05/15 10:46:35;;;;;;;;;;;16.10;99.90;;;;;;6185745;23;20341;-78
2023/05/15 10:49:01;;;;;;;;;;;16.20;99.90;;;;;;6185750;23;20218;-79
2023/05/15 10:51:28;;;;;;;;;;;16.10;99.90;;;;;;6185820;23;19991;-79
2023/05/15 10:53:55;;;;;;;;;;;16.10;99.90;;;;;;6159333;23;19920;-79
2023/05/15 10:56:25;;;;;;;;;;;16.00;99.90;;;;;;6160121;23;19920;-79
2023/05/15 10:58:50;;;;;;;;;;;16.20;99.90;;;;;;6159874;23;19927;-78
2023/05/15 11:01:23;;;;;;;;;;;16.40;99.90;;;;;;6161482;23;19924;-79
2023/05/15 11:04:03;;;;;;;;;;;16.60;99.90;;;;;;6159773;23;19920;-79
2023/05/15 11:06:31;;;;;;;;;;;16.90;99.90;;;;;;6159026;23;20003;-79
2023/05/15 11:09:15;;;;;;;;;;;16.90;99.90;;;;;;6185132;23;20327;-79
2023/05/15 11:11:59;;;;;;;;;;;17.00;99.90;;;;;;6185538;23;20245;-79
2023/05/15 11:14:25;;;;;;;;;;;16.80;99.90;;;;;;6158773;23;19916;-79
2023/05/15 11:16:51;;;;;;;;;;;16.90;99.90;;;;;;6159033;23;19998;-79
2023/05/15 11:19:22;;;;;;;;;;;17.00;99.90;;;;;;6185372;23;19987;-79
2023/05/15 11:21:58;;;;;;;;;;;17.10;99.90;;;;;;6158758;23;20381;-78
2023/05/15 11:24:27;;;;;;;;;;;17.10;99.90;;;;;;6185922;23;19920;-79
2023/05/15 11:27:00;;;;;;;;;;;17.10;99.90;;;;;;6158218;23;20238;-78
2023/05/15 11:29:26;;;;;;;;;;;17.20;99.90;;;;;;6158999;23;19927;-79
2023/05/15 11:31:51;;;;;;;;;;;17.00;99.90;;;;;;6158907;23;19920;-79
2023/05/15 11:34:32;;;;;;;;;;;17.10;99.90;;;;;;6185416;23;19966;-79
2023/05/15 11:36:59;;;;;;;;;;;17.30;99.90;;;;;;6184587;23;19920;-79
2023/05/15 11:39:24;;;;;;;;;;;17.40;99.90;;;;;;6158586;23;19920;-79
2023/05/15 11:41:50;;;;;;;;;;;17.10;99.90;;;;;;6158698;23;19995;-79
2023/05/15 11:44:20;;;;;;;;;;;17.10;99.90;;;;;;6158893;23;19924;-78
2023/05/15 11:46:46;;;;;;;;;;;16.80;99.90;;;;;;6158490;23;20375;-78
2023/05/15 11:49:11;;;;;;;;;;;16.80;99.90;;;;;;6159207;23;20341;-78
2023/05/15 11:51:41;;;;;;;;;;;16.70;99.90;;;;;;6185422;23;20240;-78
2023/05/15 11:54:10;;;;;;;;;;;16.60;99.90;;;;;;6184669;23;19921;-78
2023/05/15 11:56:41;;;;;;;;;;;16.40;99.90;;;;;;6185592;23;19920;-78
2023/05/15 11:59:14;;;;;;;;;;;16.40;99.90;;;;;;6158772;23;19991;-80
2023/05/15 12:01:40;;;;;;;;;;;16.00;99.90;;;;;;6185335;23;19920;-80
2023/05/15 12:04:13;;;;;;;;;;;15.90;99.90;;;;;;6158609;23;19959;-80
2023/05/15 12:06:39;;;;;;;;;;;15.90;99.90;;;;;;6159079;23;19924;-79
2023/05/15 12:09:05;;;;;;;;;;;15.80;99.90;;;;;;6184587;23;19987;-79
2023/05/15 12:11:30;;;;;;;;;;;15.70;99.90;;;;;;6185646;23;20331;-79
2023/05/15 12:13:59;;;;;;;;;;;15.80;99.90;;;;;;6158657;23;19956;-78
2023/05/15 12:16:27;;;;;;;;;;;15.90;99.90;;;;;;6158520;23;19920;-79
2023/05/15 12:18:55;;;;;;;;;;;16.00;99.90;;;;;;6158603;23;19920;-79
2023/05/15 12:21:20;;;;;;;;;;;16.20;99.90;;;;;;6185540;23;19920;-79
2023/05/15 12:23:52;;;;;;;;;;;16.30;99.90;;;;;;6158165;23;19963;-79
2023/05/15 12:26:20;;;;;;;;;;;16.30;99.90;;;;;;6158834;23;19925;-79
2023/05/15 12:28:46;;;;;;;;;;;16.30;99.90;;;;;;6158545;23;19920;-79
2023/05/15 12:31:16;;;;;;;;;;;16.20;99.90;;;;;;6185301;23;19917;-79
2023/05/15 12:33:42;;;;;;;;;;;16.20;99.90;;;;;;6158745;23;20230;-79
2023/05/15 12:36:08;;;;;;;;;;;16.10;99.90;;;;;;6185754;23;19924;-78
2023/05/15 12:38:35;;;;;;;;;;;15.80;99.90;;;;;;6187560;23;19931;-78
2023/05/15 12:41:00;;;;;;;;;;;15.80;99.90;;;;;;6187430;23;19995;-78
2023/05/15 12:43:26;;;;;;;;;;;15.70;99.90;;;;;;6187159;23;19952;-78
2023/05/15 12:45:55;;;;;;;;;;;15.70;99.90;;;;;;6187411;23;19983;-78
2023/05/15 12:48:20;;;;;;;;;;;15.60;99.90;;;;;;6189578;23;19920;-78
2023/05/15 12:50:46;;;;;;;;;;;15.60;99.90;;;;;;6192600;23;19974;-78
2023/05/15 12:53:14;;;;;;;;;;;15.60;99.90;;;;;;6166126;23;20300;-78
2023/05/15 12:55:43;;;;;;;;;;;15.60;99.90;;;;;;6191784;23;19916;-78
2023/05/15 12:58:09;;;;;;;;;;;15.70;99.90;;;;;;6185339;23;19924;-78
2023/05/15 13:00:36;;;;;;;;;;;15.60;99.90;;;;;;6160576;23;19927;-78
2023/05/15 13:03:05;;;;;;;;;;;15.60;99.90;;;;;;6187125;23;19920;-78
2023/05/15 13:05:31;;;;;;;;;;;15.50;99.90;;;;;;6160347;23;19920;-78
2023/05/15 13:07:57;;;;;;;;;;;15.60;99.90;;;;;;6160337;23;19920;-78
2023/05/15 13:10:23;;;;;;;;;;;15.60;99.90;;;;;;6160889;23;19920;-78
2023/05/15 13:12:50;;;;;;;;;;;15.30;99.90;;;;;;6159865;23;20019;-78
2023/05/15 13:15:24;;;;;;;;;;;15.50;99.90;;;;;;6160883;23;20408;-78
2023/05/15 13:17:59;;;;;;;;;;;15.70;99.90;;;;;;6186715;23;19920;-79
2023/05/15 13:20:26;;;;;;;;;;;15.90;99.90;;;;;;6187078;23;19920;-79
2023/05/15 13:22:54;;;;;;;;;;;15.90;99.90;;;;;;6186933;23;19955;-79
2023/05/15 13:25:20;;;;;;;;;;;16.20;99.90;;;;;;6186766;23;19998;-79
2023/05/15 13:27:46;;;;;;;;;;;16.20;99.90;;;;;;6187065;23;19935;-79
2023/05/15 13:30:15;;;;;;;;;;;16.10;99.90;;;;;;6186660;23;19963;-78
2023/05/15 13:32:44;;;;;;;;;;;16.30;99.90;;;;;;6159969;23;19928;-79
2023/05/15 13:35:09;;;;;;;;;;;16.10;99.90;;;;;;6159778;23;19920;-78
2023/05/15 13:37:36;;;;;;;;;;;16.00;99.90;;;;;;6187290;23;19927;-79
2023/05/15 13:40:05;;;;;;;;;;;16.00;99.90;;;;;;6159151;23;20333;-78
2023/05/15 13:42:40;;;;;;;;;;;15.90;99.90;;;;;;6160829;23;19913;-78
2023/05/15 13:45:10;;;;;;;;;;;15.60;99.90;;;;;;6186799;23;20003;-78
2023/05/15 13:47:38;;;;;;;;;;;15.50;99.90;;;;;;6185987;23;19926;-78
2023/05/15 13:50:07;;;;;;;;;;;15.60;99.90;;;;;;6161655;23;19928;-77
2023/05/15 13:52:36;;;;;;;;;;;15.60;99.90;;;;;;6188683;23;20337;-78
2023/05/15 13:55:03;;;;;;;;;;;15.60;99.90;;;;;;6188220;23;19920;-78
2023/05/15 13:57:29;;;;;;;;;;;15.50;99.90;;;;;;6160113;23;19943;-79
2023/05/15 13:59:54;;;;;;;;;;;15.60;99.90;;;;;;6186764;23;20348;-79
2023/05/15 14:02:22;;;;;;;;;;;15.70;99.90;;;;;;6159692;23;20299;-79
2023/05/15 14:04:47;;;;;;;;;;;15.60;99.90;;;;;;6186327;23;19928;-78
2023/05/15 14:07:13;;;;;;;;;;;15.70;99.90;;;;;;6186513;23;19977;-78
2023/05/15 14:09:38;;;;;;;;;;;15.60;99.90;;;;;;6159984;23;20249;-78
2023/05/15 14:12:04;;;;;;;;;;;15.70;99.90;;;;;;6159437;23;19920;-78
2023/05/15 14:14:30;;;;;;;;;;;15.70;99.90;;;;;;6159375;23;19920;-79
2023/05/15 14:16:55;;;;;;;;;;;15.60;99.90;;;;;;6186508;23;19920;-79
2023/05/15 14:19:21;;;;;;;;;;;15.40;99.90;;;;;;6186316;23;19927;-78
2023/05/15 14:21:46;;;;;;;;;;;15.40;99.90;;;;;;6186066;23;19920;-78
2023/05/15 14:24:12;;;;;;;;;;;15.50;99.90;;;;;;6185589;23;19916;-79
2023/05/15 14:26:37;;;;;;;;;;;15.50;99.90;;;;;;6160147;23;19924;-78
2023/05/15 14:29:03;;;;;;;;;;;15.60;99.90;;;;;;6185915;23;20356;-78
2023/05/15 14:31:28;;;;;;;;;;;15.60;99.90;;;;;;6159859;23;20296;-78
2023/05/15 14:33:54;;;;;;;;;;;15.50;99.90;;;;;;6186444;23;19921;-78
2023/05/15 14:36:20;;;;;;;;;;;15.60;99.90;;;;;;6183251;23;19916;-76
2023/05/15 14:38:47;;;;;;;;;;;15.60;99.90;;;;;;6184990;23;19924;-75
2023/05/15 14:41:13;;;;;;;;;;;15.70;99.90;;;;;;6159205;23;19926;-80
2023/05/15 14:43:39;;;;;;;;;;;15.60;99.90;;;;;;6158357;23;20002;-79
2023/05/15 14:46:04;;;;;;;;;;;15.60;99.90;;;;;;6184908;23;19920;-80
2023/05/15 14:48:30;;;;;;;;;;;15.70;99.90;;;;;;6160573;23;19946;-80
2023/05/15 14:50:57;;;;;;;;;;;15.60;99.90;;;;;;6159295;23;19921;-80
2023/05/15 14:53:28;;;;;;;;;;;15.60;99.90;;;;;;6186298;23;20331;-79
2023/05/15 14:55:54;;;;;;;;;;;15.80;99.90;;;;;;6159218;23;19920;-79
2023/05/15 14:58:19;;;;;;;;;;;16.00;99.90;;;;;;6183968;23;19924;-79
2023/05/15 15:00:47;;;;;;;;;;;16.10;99.90;;;;;;6159233;23;20296;-79
2023/05/15 15:03:12;;;;;;;;;;;16.00;99.90;;;;;;6159648;23;20237;-79
2023/05/15 15:05:40;;;;;;;;;;;15.80;99.90;;;;;;6158958;23;19959;-79
2023/05/15 15:08:12;;;;;;;;;;;15.70;99.90;;;;;;6185854;23;19920;-80
2023/05/15 15:10:41;;;;;;;;;;;17.00;99.90;;;;;;6159189;23;19920;-80
2023/05/15 15:13:08;;;;;;;;;;;15.40;99.90;;;;;;6159018;23;19923;-81
2023/05/15 15:15:43;;;;;;;;;;;15.30;99.90;;;;;;6159709;23;19927;-79
2023/05/15 15:18:09;;;;;;;;;;;15.30;99.90;;;;;;6184454;23;20356;-79
2023/05/15 15:20:34;;;;;;;;;;;15.30;99.90;;;;;;6158023;23;19920;-79
2023/05/15 15:23:02;;;;;;;;;;;15.20;99.90;;;;;;6185863;23;19924;-79
2023/05/15 15:25:28;;;;;;;;;;;15.30;99.90;;;;;;6157485;23;19924;-79
2023/05/15 15:27:53;;;;;;;;;;;15.10;99.90;;;;;;6156487;23;20240;-79
2023/05/15 15:30:19;;;;;;;;;;;15.00;99.90;;;;;;6183689;23;20060;-79
2023/05/15 15:32:45;;;;;;;;;;;15.10;99.90;;;;;;6156685;23;20404;-79
2023/05/15 15:35:11;;;;;;;;;;;15.20;99.90;;;;;;6183161;23;19931;-79
2023/05/15 15:37:37;;;;;;;;;;;15.30;99.90;;;;;;6156994;23;20269;-79
2023/05/15 15:40:04;;;;;;;;;;;15.20;99.90;;;;;;6156664;23;19927;-79
2023/05/15 15:42:30;;;;;;;;;;;15.20;99.90;;;;;;6185984;23;20000;-80
2023/05/15 15:45:00;;;;;;;;;;;14.90;99.90;;;;;;6159335;23;19921;-79
2023/05/15 15:47:25;;;;;;;;;;;14.80;99.90;;;;;;6185562;23;19920;-78
2023/05/15 15:49:53;;;;;;;;;;;14.70;99.90;;;;;;6185445;23;19920;-79
2023/05/15 15:52:19;;;;;;;;;;;14.50;99.90;;;;;;6160206;23;19920;-79
2023/05/15 15:54:48;;;;;;;;;;;14.50;99.90;;;;;;6158837;23;19920;-79
2023/05/15 15:57:13;;;;;;;;;;;14.40;99.90;;;;;;6159352;23;19920;-79
2023/05/15 15:59:39;;;;;;;;;;;14.30;99.90;;;;;;6156578;23;19983;-77
2023/05/15 16:02:06;;;;;;;;;;;14.10;99.90;;;;;;6182709;23;19924;-77
2023/05/15 16:04:31;;;;;;;;;;;14.00;99.90;;;;;;6182339;23;19924;-78
2023/05/15 16:06:57;;;;;;;;;;;13.90;99.90;;;;;;6157137;23;19926;-75
2023/05/15 16:09:23;;;;;;;;;;;14.60;99.90;;;;;;6185227;23;20300;-76
2023/05/15 16:11:51;;;;;;;;;;;13.90;99.90;;;;;;6159251;23;19920;-76
2023/05/15 16:14:17;;;;;;;;;;;13.80;99.90;;;;;;6159146;23;19920;-77
2023/05/15 16:16:43;;;;;;;;;;;13.70;99.90;;;;;;6160314;23;20222;-76
2023/05/15 16:19:09;;;;;;;;;;;13.60;99.90;;;;;;6185373;23;19964;-73
2023/05/15 16:21:35;;;;;;;;;;;13.30;99.90;;;;;;6159963;23;19928;-76
2023/05/15 16:24:22;;;;;;;;;;;13.20;99.90;;;;;;6187452;23;19943;-74
2023/05/15 16:27:20;;;;;;;;;;;13.10;99.90;;;;;;6186668;23;19920;-75
2023/05/15 16:29:45;;;;;;;;;;;13.20;99.90;;;;;;6157714;23;19921;-76
2023/05/15 16:49:04;;;;;;;;;;;12.60;99.90;;;;;;6158021;23;20017;-77
2023/05/15 16:51:32;;;;;;;;;;;12.50;99.90;;;;;;6158742;23;19923;-77
2023/05/15 16:54:11;;;;;;;;;;;12.50;99.90;;;;;;6157736;23;19948;-77
2023/05/15 16:56:36;;;;;;;;;;;12.40;99.90;;;;;;6183769;23;19916;-76
2023/05/15 16:59:02;;;;;;;;;;;12.30;99.90;;;;;;6158071;23;20007;-77
2023/05/15 17:01:28;;;;;;;;;;;12.40;99.90;;;;;;6158215;23;19931;-79
2023/05/15 17:03:54;;;;;;;;;;;12.30;99.90;;;;;;6183829;23;19920;-74
2023/05/15 17:06:20;;;;;;;;;;;12.20;99.90;;;;;;6156273;23;20003;-75
2023/05/15 17:08:45;;;;;;;;;;;12.10;99.90;;;;;;6185220;23;19924;-75
2023/05/15 17:11:20;;;;;;;;;;;12.00;99.90;;;;;;6156390;23;19924;-77
2023/05/15 17:14:12;;;;;;;;;;;12.00;99.90;;;;;;6182823;23;19955;-75
2023/05/15 17:16:38;;;;;;;;;;;11.90;99.90;;;;;;6183901;23;20051;-74
2023/05/15 17:19:04;;;;;;;;;;;11.80;99.90;;;;;;6157378;23;19924;-72
2023/05/15 17:21:30;;;;;;;;;;;11.70;99.90;;;;;;6184751;23;20260;-72
2023/05/15 17:23:59;;;;;;;;;;;11.60;99.90;;;;;;6159962;23;19920;-71
2023/05/15 17:26:25;;;;;;;;;;;11.50;99.90;;;;;;6159681;23;19924;-71
2023/05/15 17:28:51;;;;;;;;;;;11.50;99.90;;;;;;6160137;23;19920;-72
2023/05/15 17:31:16;;;;;;;;;;;11.40;99.90;;;;;;6159638;23;20012;-71
2023/05/15 17:33:42;;;;;;;;;;;11.40;99.90;;;;;;6186736;23;19920;-72
2023/05/15 17:36:08;;;;;;;;;;;11.30;99.90;;;;;;6160053;23;19995;-76
2023/05/15 17:38:33;;;;;;;;;;;11.30;99.90;;;;;;6159337;23;20471;-73
2023/05/15 17:41:02;;;;;;;;;;;11.30;99.90;;;;;;6159576;23;19944;-74
2023/05/15 17:43:28;;;;;;;;;;;11.70;99.90;;;;;;6160042;23;19925;-74
2023/05/15 17:45:54;;;;;;;;;;;11.20;99.90;;;;;;6159009;23;20248;-74